Time;durP1;ratioP1;P1;durP2;ratioP2;P2;SDS_P1;SDS_P2;PMS_P1;PMS_P2;Temp;Humidity;BMP_temperature;BMP_pressure;BME280_temperature;BME280_humidity;BME280_pressure;Samples;Min_cycle;Max_cycle;Signal;HPM_P1;HPM_P2
2022/03/14 00:01:52;;;;;;;;;;;;;;;4.22;58.37;101654.78;1723409;81;20144;-83
2022/03/14 00:04:18;;;;;;;;;;;;;;;4.28;58.22;101653.17;1729717;81;21126;-83
2022/03/14 00:06:49;;;;;;;;;;;;;;;4.21;58.39;101647.89;1725828;82;20185;-84
2022/03/14 00:09:11;;;;;;;;;;;;;;;4.06;58.80;101652.58;1726721;82;20172;-82
2022/03/14 00:11:37;;;;;;;;;;;;;;;4.17;58.53;101648.13;1730623;82;21085;-86
2022/03/14 00:14:07;;;;;;;;;;;;;;;4.25;58.30;101652.02;1732320;82;20215;-83
2022/03/14 00:16:36;;;;;;;;;;;;;;;4.18;58.48;101648.05;1718474;82;20119;-82
2022/03/14 00:18:58;;;;;;;;;;;;;;;4.23;58.25;101647.34;1715319;81;20118;-85
2022/03/14 00:21:25;;;;;;;;;;;;;;;4.26;58.01;101646.34;1717130;82;20156;-82
2022/03/14 00:23:52;;;;;;;;;;;;;;;4.14;58.45;101647.80;1729336;82;21082;-84
2022/03/14 00:26:18;;;;;;;;;;;;;;;4.12;58.38;101649.19;1720463;82;20534;-83
2022/03/14 00:28:44;;;;;;;;;;;;;;;4.06;58.52;101646.87;1727607;82;20163;-83
2022/03/14 00:31:09;;;;;;;;;;;;;;;4.10;58.51;101650.17;1730835;82;21197;-85
2022/03/14 00:33:36;;;;;;;;;;;;;;;4.09;58.45;101652.42;1728277;81;20137;-84
2022/03/14 00:36:02;;;;;;;;;;;;;;;4.13;58.23;101651.33;1727225;82;22295;-84
2022/03/14 00:38:28;;;;;;;;;;;;;;;4.03;58.59;101643.59;1725448;82;20114;-83
2022/03/14 00:40:54;;;;;;;;;;;;;;;4.03;58.60;101644.89;1692025;82;20135;-85
2022/03/14 00:43:19;;;;;;;;;;;;;;;4.13;58.42;101655.25;1710496;82;20633;-84
2022/03/14 00:45:45;;;;;;;;;;;;;;;4.15;58.16;101645.58;1697508;82;20120;-84
2022/03/14 00:48:10;;;;;;;;;;;;;;;3.99;58.46;101642.03;1689653;82;21055;-86
2022/03/14 00:50:36;;;;;;;;;;;;;;;3.85;58.87;101643.55;1693675;82;20138;-83
2022/03/14 00:53:02;;;;;;;;;;;;;;;3.85;58.93;101646.16;1732602;81;20276;-81
2022/03/14 00:55:28;;;;;;;;;;;;;;;3.80;59.03;101645.55;1718092;81;20316;-83
2022/03/14 00:57:53;;;;;;;;;;;;;;;3.66;59.42;101645.39;1722151;81;20523;-84
2022/03/14 01:00:19;;;;;;;;;;;;;;;3.75;59.03;101643.64;1735678;81;21905;-84
2022/03/14 01:02:48;;;;;;;;;;;;;;;3.75;59.09;101644.48;1716068;81;20193;-86
2022/03/14 01:05:12;;;;;;;;;;;;;;;3.74;59.09;101636.27;1700358;81;20545;-83
2022/03/14 01:07:37;;;;;;;;;;;;;;;3.71;59.26;101636.86;1693350;82;20135;-83
2022/03/14 01:10:03;;;;;;;;;;;;;;;3.74;59.08;101633.66;1690815;81;20163;-83
2022/03/14 01:12:29;;;;;;;;;;;;;;;3.69;59.15;101642.16;1696620;81;20958;-88
2022/03/14 01:14:56;;;;;;;;;;;;;;;3.48;59.95;101637.97;1694714;83;20152;-87
2022/03/14 01:17:22;;;;;;;;;;;;;;;3.48;59.86;101641.45;1694042;81;20201;-86
2022/03/14 01:19:47;;;;;;;;;;;;;;;3.54;59.71;101645.07;1694769;82;20184;-85
2022/03/14 01:22:15;;;;;;;;;;;;;;;3.42;59.99;101643.05;1689713;83;20156;-85
2022/03/14 01:24:41;;;;;;;;;;;;;;;3.59;59.54;101647.47;1693111;82;21134;-83
2022/03/14 01:27:07;;;;;;;;;;;;;;;3.65;59.24;101641.08;1692737;83;20109;-83
2022/03/14 01:29:34;;;;;;;;;;;;;;;3.65;59.33;101641.08;1693426;82;20168;-86
2022/03/14 01:32:01;;;;;;;;;;;;;;;3.59;59.47;101637.02;1690040;82;20199;-83
2022/03/14 01:34:27;;;;;;;;;;;;;;;3.57;59.41;101638.39;1693867;82;20193;-85
2022/03/14 01:36:52;;;;;;;;;;;;;;;3.61;59.35;101639.55;1692942;82;21187;-85
2022/03/14 01:39:18;;;;;;;;;;;;;;;3.52;59.79;101636.45;1695528;82;20189;-83
2022/03/14 01:41:44;;;;;;;;;;;;;;;3.57;59.74;101642.75;1694716;82;20148;-86
2022/03/14 01:44:09;;;;;;;;;;;;;;;3.50;59.87;101630.45;1691001;83;20170;-85
2022/03/14 01:46:35;;;;;;;;;;;;;;;3.58;59.64;101638.77;1691230;82;20170;-79
2022/03/14 01:49:01;;;;;;;;;;;;;;;3.42;60.29;101640.44;1694976;82;21207;-84
2022/03/14 01:51:26;;;;;;;;;;;;;;;3.58;59.70;101643.98;1695855;82;20517;-86
2022/03/14 01:53:53;;;;;;;;;;;;;;;3.44;60.12;101641.20;1691771;82;20215;-88
2022/03/14 01:56:18;;;;;;;;;;;;;;;3.53;59.88;101643.37;1692204;82;20208;-85
2022/03/14 01:58:46;;;;;;;;;;;;;;;3.59;59.69;101645.69;1691533;82;20417;-84
2022/03/14 02:01:11;;;;;;;;;;;;;;;3.51;59.70;101645.22;1690816;82;21191;-87
2022/03/14 02:03:37;;;;;;;;;;;;;;;3.47;60.20;101648.89;1693482;82;20353;-84
2022/03/14 02:06:02;;;;;;;;;;;;;;;3.45;60.07;101649.43;1715924;82;20132;-87
2022/03/14 02:08:28;;;;;;;;;;;;;;;3.54;59.66;101654.22;1719833;82;20578;-87
2022/03/14 02:10:54;;;;;;;;;;;;;;;3.56;59.67;101655.45;1727781;82;20149;-87
2022/03/14 02:13:19;;;;;;;;;;;;;;;3.54;59.70;101650.30;1687615;83;21325;-87
2022/03/14 02:15:46;;;;;;;;;;;;;;;3.59;59.56;101653.53;1687047;84;20661;-84
2022/03/14 02:18:11;;;;;;;;;;;;;;;3.44;60.24;101654.25;1685937;84;20636;-82
2022/03/14 02:20:39;;;;;;;;;;;;;;;3.53;59.88;101660.34;1689155;83;20588;-84
2022/03/14 02:23:04;;;;;;;;;;;;;;;3.53;59.97;101660.34;1685388;83;20130;-86
2022/03/14 02:25:34;;;;;;;;;;;;;;;3.50;60.11;101659.19;1685342;83;21095;-86
2022/03/14 02:27:57;;;;;;;;;;;;;;;3.48;60.01;101654.95;1689901;83;20962;-86
2022/03/14 02:30:23;;;;;;;;;;;;;;;3.22;60.91;101661.78;1686602;83;20464;-87
2022/03/14 02:32:49;;;;;;;;;;;;;;;3.30;60.58;101660.59;1688026;83;20655;-85
2022/03/14 02:35:15;;;;;;;;;;;;;;;3.24;60.87;101665.16;1686764;83;20269;-88
2022/03/14 02:37:40;;;;;;;;;;;;;;;3.26;60.67;101665.09;1684962;84;21963;-87
2022/03/14 02:40:07;;;;;;;;;;;;;;;3.27;60.84;101670.71;1685923;83;20186;-87
2022/03/14 02:42:33;;;;;;;;;;;;;;;3.28;60.76;101667.19;1686326;83;20259;-85
2022/03/14 02:44:59;;;;;;;;;;;;;;;3.36;60.26;101662.92;1689506;83;20203;-85
2022/03/14 02:47:25;;;;;;;;;;;;;;;3.36;60.27;101669.45;1688937;83;20237;-86
2022/03/14 02:49:50;;;;;;;;;;;;;;;3.26;60.72;101674.70;1687180;83;21125;-86
2022/03/14 02:52:16;;;;;;;;;;;;;;;3.27;60.79;101672.02;1684352;83;20135;-86
2022/03/14 02:54:43;;;;;;;;;;;;;;;3.22;60.80;101669.62;1687630;83;20535;-84
2022/03/14 02:57:09;;;;;;;;;;;;;;;3.11;61.29;101670.58;1688858;83;20196;-87
2022/03/14 02:59:34;;;;;;;;;;;;;;;3.06;61.37;101669.92;1684196;83;21050;-86
2022/03/14 03:02:00;;;;;;;;;;;;;;;3.08;61.31;101669.42;1686787;83;21194;-87
2022/03/14 03:04:26;;;;;;;;;;;;;;;3.12;61.05;101674.86;1686074;83;20135;-87
2022/03/14 03:06:54;;;;;;;;;;;;;;;3.19;60.84;101672.84;1673269;83;20266;-86
2022/03/14 03:09:19;;;;;;;;;;;;;;;3.15;60.89;101672.11;1669370;83;20493;-87
2022/03/14 03:11:44;;;;;;;;;;;;;;;3.14;60.86;101673.05;1668108;84;20149;-87
2022/03/14 03:14:10;;;;;;;;;;;;;;;3.12;60.86;101672.72;1686004;83;20649;-86
2022/03/14 03:16:36;;;;;;;;;;;;;;;3.05;61.18;101676.08;1687934;83;20139;-87
2022/03/14 03:19:01;;;;;;;;;;;;;;;3.01;61.48;101681.04;1685686;83;20492;-87
2022/03/14 03:21:28;;;;;;;;;;;;;;;3.08;61.21;101681.59;1689297;83;20123;-84
2022/03/14 03:23:53;;;;;;;;;;;;;;;3.20;60.78;101683.21;1686183;83;20223;-83
2022/03/14 03:26:20;;;;;;;;;;;;;;;3.30;60.54;101684.09;1686886;83;21946;-85
2022/03/14 03:28:45;;;;;;;;;;;;;;;3.14;61.09;101692.62;1687114;83;20199;-83
2022/03/14 03:31:13;;;;;;;;;;;;;;;3.00;61.47;101689.80;1687562;83;20619;-85
2022/03/14 03:33:39;;;;;;;;;;;;;;;3.01;61.28;101679.73;1687542;83;20210;-83
2022/03/14 03:36:05;;;;;;;;;;;;;;;3.03;61.20;101679.20;1686895;83;20166;-85
2022/03/14 03:38:31;;;;;;;;;;;;;;;3.00;61.49;101686.73;1687312;83;21187;-88
2022/03/14 03:40:56;;;;;;;;;;;;;;;2.94;61.80;101691.39;1688084;83;20146;-86
2022/03/14 03:43:22;;;;;;;;;;;;;;;2.90;61.79;101695.03;1684327;84;20143;-84
2022/03/14 03:45:48;;;;;;;;;;;;;;;2.96;61.51;101685.63;1687678;83;20193;-86
2022/03/14 03:48:14;;;;;;;;;;;;;;;2.91;61.55;101685.00;1689823;83;20186;-83
2022/03/14 03:50:40;;;;;;;;;;;;;;;2.90;61.69;101691.13;1685980;83;21183;-84
2022/03/14 03:53:05;;;;;;;;;;;;;;;2.90;61.69;101696.34;1690659;82;20478;-80
2022/03/14 03:55:31;;;;;;;;;;;;;;;2.93;61.65;101700.12;1688394;82;20123;-83
2022/03/14 03:57:57;;;;;;;;;;;;;;;2.93;61.59;101705.34;1686752;84;20460;-83
2022/03/14 04:00:22;;;;;;;;;;;;;;;2.89;61.69;101700.72;1684314;82;20218;-83
2022/03/14 04:02:48;;;;;;;;;;;;;;;2.86;61.81;101703.00;1686393;83;21005;-81
2022/03/14 04:05:18;;;;;;;;;;;;;;;2.82;61.79;101702.73;1694839;81;20251;-81
2022/03/14 04:07:44;;;;;;;;;;;;;;;2.80;61.91;101703.27;1733577;81;20240;-82
2022/03/14 04:10:13;;;;;;;;;;;;;;;2.81;62.03;101704.97;1735146;81;20248;-84
2022/03/14 04:12:39;;;;;;;;;;;;;;;2.87;61.66;101709.05;1701338;82;20184;-86
2022/03/14 04:15:07;;;;;;;;;;;;;;;2.81;61.88;101704.97;1732439;82;21152;-80
2022/03/14 04:17:35;;;;;;;;;;;;;;;2.87;61.60;101704.70;1734180;81;20221;-83
2022/03/14 04:20:00;;;;;;;;;;;;;;;2.82;61.73;101711.86;1738952;81;20196;-82
2022/03/14 04:22:27;;;;;;;;;;;;;;;2.87;61.57;101706.44;1738644;81;20436;-83
2022/03/14 04:24:53;;;;;;;;;;;;;;;2.84;61.64;101703.53;1739449;81;20227;-84
2022/03/14 04:27:19;;;;;;;;;;;;;;;2.92;61.50;101708.41;1736329;81;20468;-84
2022/03/14 04:29:44;;;;;;;;;;;;;;;2.71;62.16;101706.28;1731503;81;20126;-82
2022/03/14 04:32:10;;;;;;;;;;;;;;;2.61;62.61;101706.27;1735179;81;20165;-86
2022/03/14 04:34:35;;;;;;;;;;;;;;;2.55;62.89;101707.84;1734400;81;20191;-85
2022/03/14 04:37:01;;;;;;;;;;;;;;;2.81;62.07;101707.58;1732864;81;20138;-86
2022/03/14 04:39:26;;;;;;;;;;;;;;;2.92;61.57;101711.45;1739295;81;21983;-85
2022/03/14 04:41:53;;;;;;;;;;;;;;;2.93;61.63;101715.30;1731640;81;20172;-85
2022/03/14 04:44:21;;;;;;;;;;;;;;;2.88;61.70;101714.67;1721482;81;20207;-85
2022/03/14 04:46:48;;;;;;;;;;;;;;;2.76;62.00;101716.52;1740872;81;20138;-86
2022/03/14 04:49:13;;;;;;;;;;;;;;;2.73;62.18;101722.70;1736328;81;20166;-86
2022/03/14 04:51:39;;;;;;;;;;;;;;;2.77;61.94;101724.73;1734286;81;21351;-85
2022/03/14 04:54:05;;;;;;;;;;;;;;;2.76;61.94;101722.56;1734600;81;20181;-83
2022/03/14 04:56:31;;;;;;;;;;;;;;;2.77;62.04;101727.34;1735515;81;20146;-85
2022/03/14 04:58:56;;;;;;;;;;;;;;;2.68;62.34;101736.41;1734807;81;20953;-86
2022/03/14 05:01:25;;;;;;;;;;;;;;;2.71;62.36;101736.74;1733615;81;20171;-81
2022/03/14 05:03:52;;;;;;;;;;;;;;;2.45;63.19;101742.13;1728822;81;20676;-85
2022/03/14 05:06:21;;;;;;;;;;;;;;;2.45;63.44;101739.52;1724446;81;20173;-87
2022/03/14 05:08:47;;;;;;;;;;;;;;;2.31;64.26;101740.56;1728894;82;20202;-83
2022/03/14 05:11:13;;;;;;;;;;;;;;;2.15;64.98;101745.09;1713789;82;20165;-85
2022/03/14 05:13:39;;;;;;;;;;;;;;;2.05;65.24;101742.92;1709737;81;20221;-84
2022/03/14 05:16:05;;;;;;;;;;;;;;;1.99;65.57;101738.83;1709323;82;21992;-83
2022/03/14 05:18:31;;;;;;;;;;;;;;;1.84;66.50;101751.16;1704428;82;20534;-84
2022/03/14 05:20:57;;;;;;;;;;;;;;;1.88;66.47;101753.58;1719695;82;20141;-83
2022/03/14 05:23:24;;;;;;;;;;;;;;;1.87;66.62;101754.94;1716533;82;20166;-85
2022/03/14 05:25:50;;;;;;;;;;;;;;;1.97;66.44;101748.44;1712965;82;20452;-84
2022/03/14 05:28:15;;;;;;;;;;;;;;;1.96;66.57;101749.38;1718575;82;21133;-83
2022/03/14 05:30:41;;;;;;;;;;;;;;;2.03;66.31;101751.27;1719140;82;20144;-84
2022/03/14 05:33:06;;;;;;;;;;;;;;;2.01;66.28;101755.70;1726552;82;20145;-84
2022/03/14 05:35:32;;;;;;;;;;;;;;;1.80;66.96;101764.73;1735290;82;20590;-86
2022/03/14 05:37:58;;;;;;;;;;;;;;;1.98;66.20;101767.08;1730597;82;20424;-82
2022/03/14 05:40:23;;;;;;;;;;;;;;;1.96;66.23;101768.91;1715931;82;21431;-86
2022/03/14 05:42:49;;;;;;;;;;;;;;;2.06;65.86;101767.61;1735502;82;20374;-84
2022/03/14 05:45:15;;;;;;;;;;;;;;;1.86;66.61;101770.16;1724812;82;20215;-83
2022/03/14 05:47:41;;;;;;;;;;;;;;;1.78;66.71;101775.20;1718655;82;20193;-84
2022/03/14 05:50:07;;;;;;;;;;;;;;;1.64;67.31;101772.30;1712382;82;20259;-88
2022/03/14 05:52:33;;;;;;;;;;;;;;;1.69;67.23;101772.95;1714107;82;21297;-85
2022/03/14 05:54:58;;;;;;;;;;;;;;;1.84;66.95;101778.51;1720282;82;20460;-87
2022/03/14 05:57:24;;;;;;;;;;;;;;;1.95;66.47;101778.92;1722458;82;20211;-85
2022/03/14 05:59:50;;;;;;;;;;;;;;;2.00;66.21;101779.58;1716970;82;20149;-85
2022/03/14 06:02:22;;;;;;;;;;;;;;;2.20;65.59;101778.80;1710569;82;20303;-85
2022/03/14 06:04:49;;;;;;;;;;;;;;;2.09;65.80;101783.13;1716275;82;21183;-85
2022/03/14 06:07:14;;;;;;;;;;;;;;;2.07;66.11;101777.14;1729320;81;20166;-84
2022/03/14 06:09:40;;;;;;;;;;;;;;;2.15;65.80;101772.92;1720882;81;20244;-92
2022/03/14 06:12:06;;;;;;;;;;;;;;;2.18;65.88;101777.17;1723126;81;20437;-85
2022/03/14 06:14:32;;;;;;;;;;;;;;;2.36;65.40;101773.80;1725769;81;20182;-88
2022/03/14 06:16:58;;;;;;;;;;;;;;;2.53;64.92;101777.48;1716930;82;21167;-85
2022/03/14 06:19:24;;;;;;;;;;;;;;;2.56;64.76;101770.36;1717976;81;20180;-85
2022/03/14 06:21:50;;;;;;;;;;;;;;;2.72;64.34;101781.02;1722287;82;20517;-85
2022/03/14 06:24:16;;;;;;;;;;;;;;;2.76;64.10;101769.52;1724397;82;20136;-83
2022/03/14 06:26:42;;;;;;;;;;;;;;;2.82;64.02;101779.70;1721286;82;20551;-87
2022/03/14 06:29:08;;;;;;;;;;;;;;;2.84;63.97;101775.28;1712061;81;21193;-87
2022/03/14 06:31:34;;;;;;;;;;;;;;;2.90;63.87;101768.09;1724073;81;20751;-86
2022/03/14 06:33:59;;;;;;;;;;;;;;;2.93;63.72;101773.17;1725734;82;20161;-85
2022/03/14 06:36:28;;;;;;;;;;;;;;;3.03;63.46;101775.76;1732735;81;20233;-83
2022/03/14 06:38:59;;;;;;;;;;;;;;;3.22;62.97;101777.13;1728085;81;20232;-89
2022/03/14 06:41:23;;;;;;;;;;;;;;;3.21;62.91;101776.25;1717842;82;21250;-90
2022/03/14 06:43:49;;;;;;;;;;;;;;;3.12;63.21;101781.88;1727069;81;20171;-87
2022/03/14 06:46:14;;;;;;;;;;;;;;;3.27;62.90;101783.45;1726803;82;21392;-86
2022/03/14 06:48:41;;;;;;;;;;;;;;;3.27;62.91;101779.53;1713636;82;20485;-86
2022/03/14 06:51:07;;;;;;;;;;;;;;;3.39;62.66;101780.28;1723559;82;20492;-85
2022/03/14 06:53:32;;;;;;;;;;;;;;;3.40;62.44;101783.27;1724279;81;21106;-86
2022/03/14 06:55:58;;;;;;;;;;;;;;;3.49;62.21;101776.78;1721241;82;20165;-88
2022/03/14 06:58:24;;;;;;;;;;;;;;;3.69;61.77;101777.17;1726088;81;20269;-84
2022/03/14 07:00:50;;;;;;;;;;;;;;;3.85;61.22;101782.05;1724253;81;20160;-83
2022/03/14 07:03:16;;;;;;;;;;;;;;;3.98;60.91;101783.65;1724398;82;20133;-82
2022/03/14 07:05:41;;;;;;;;;;;;;;;3.97;60.75;101781.11;1719942;81;21060;-85
2022/03/14 07:08:09;;;;;;;;;;;;;;;4.15;60.33;101784.15;1691287;82;20527;-84
2022/03/14 07:10:34;;;;;;;;;;;;;;;4.09;60.22;101787.06;1694567;83;20228;-83
2022/03/14 07:13:00;;;;;;;;;;;;;;;4.31;59.87;101785.08;1690644;82;20228;-86
2022/03/14 07:15:26;;;;;;;;;;;;;;;4.25;60.08;101784.07;1695688;82;20203;-84
2022/03/14 07:17:52;;;;;;;;;;;;;;;4.29;59.66;101783.48;1694035;82;21218;-84
2022/03/14 07:20:18;;;;;;;;;;;;;;;4.31;59.59;101791.62;1697744;82;20297;-88
2022/03/14 07:22:57;;;;;;;;;;;;;;;4.49;59.50;101792.97;1690865;83;20166;-85
2022/03/14 07:25:25;;;;;;;;;;;;;;;4.57;59.16;101791.24;1694617;82;20263;-85
2022/03/14 07:27:51;;;;;;;;;;;;;;;4.66;58.96;101799.50;1692330;82;20179;-84
2022/03/14 07:30:17;;;;;;;;;;;;;;;4.73;59.00;101796.58;1694258;82;21084;-83
2022/03/14 07:32:42;;;;;;;;;;;;;;;4.74;58.85;101804.34;1689965;83;20142;-84
2022/03/14 07:35:09;;;;;;;;;;;;;;;4.79;58.57;101800.19;1696202;82;20172;-84
2022/03/14 07:37:35;;;;;;;;;;;;;;;4.88;58.49;101801.03;1690424;83;20171;-83
2022/03/14 07:40:01;;;;;;;;;;;;;;;4.91;58.41;101801.31;1697712;81;20119;-84
2022/03/14 07:42:27;;;;;;;;;;;;;;;5.01;58.15;101795.53;1695018;82;21149;-85
2022/03/14 07:44:53;;;;;;;;;;;;;;;5.11;58.08;101795.05;1690751;82;20117;-91
2022/03/14 07:47:18;;;;;;;;;;;;;;;5.08;57.86;101803.94;1666397;83;20459;-83
2022/03/14 07:49:44;;;;;;;;;;;;;;;5.18;57.80;101796.44;1693593;82;21115;-84
2022/03/14 07:52:10;;;;;;;;;;;;;;;5.21;57.76;101797.59;1694204;82;20469;-85
2022/03/14 07:54:36;;;;;;;;;;;;;;;5.47;57.33;101792.72;1690700;82;21156;-84
2022/03/14 07:57:02;;;;;;;;;;;;;;;5.24;57.72;101793.50;1693061;82;20592;-82
2022/03/14 07:59:28;;;;;;;;;;;;;;;5.45;57.19;101801.97;1690813;82;20229;-88
2022/03/14 08:01:53;;;;;;;;;;;;;;;5.37;57.35;101795.83;1692836;83;20986;-86
2022/03/14 08:04:19;;;;;;;;;;;;;;;5.42;57.15;101796.06;1691157;83;20159;-86
2022/03/14 08:06:45;;;;;;;;;;;;;;;5.43;57.40;101804.31;1693271;82;21095;-89
2022/03/14 08:09:11;;;;;;;;;;;;;;;5.58;57.10;101799.56;1688940;83;20829;-86
2022/03/14 08:11:38;;;;;;;;;;;;;;;5.70;56.74;101798.03;1689595;81;20471;-90
2022/03/14 08:14:07;;;;;;;;;;;;;;;5.46;57.07;101802.84;1691031;83;20178;-87
2022/03/14 08:16:33;;;;;;;;;;;;;;;5.61;57.00;101796.77;1689078;83;20169;-85
2022/03/14 08:18:58;;;;;;;;;;;;;;;5.71;56.34;101792.70;1686871;83;21822;-86
2022/03/14 08:21:24;;;;;;;;;;;;;;;5.54;56.30;101801.95;1690439;83;20196;-87
2022/03/14 08:23:50;;;;;;;;;;;;;;;5.65;56.29;101796.97;1689299;83;20207;-87
2022/03/14 08:26:17;;;;;;;;;;;;;;;5.61;56.11;101794.16;1690644;82;20580;-87
2022/03/14 08:28:44;;;;;;;;;;;;;;;5.85;55.68;101788.48;1688902;83;20641;-85
2022/03/14 08:31:14;;;;;;;;;;;;;;;5.94;55.48;101790.59;1689189;83;21181;-83
2022/03/14 08:33:41;;;;;;;;;;;;;;;6.00;55.08;101787.66;1684122;82;20164;-86
2022/03/14 08:36:07;;;;;;;;;;;;;;;6.17;54.56;101789.34;1691180;83;20198;-86
2022/03/14 08:38:33;;;;;;;;;;;;;;;6.35;54.20;101781.34;1690309;83;20161;-84
2022/03/14 08:40:58;;;;;;;;;;;;;;;6.44;54.12;101788.20;1689653;83;20161;-84
2022/03/14 08:43:24;;;;;;;;;;;;;;;6.54;53.75;101789.86;1690400;83;21198;-86
2022/03/14 08:45:50;;;;;;;;;;;;;;;6.70;53.72;101789.79;1691847;82;20160;-86
2022/03/14 08:48:16;;;;;;;;;;;;;;;6.82;53.14;101790.83;1686447;82;20101;-86
2022/03/14 08:50:41;;;;;;;;;;;;;;;6.76;52.84;101786.80;1689550;83;20145;-85
2022/03/14 08:53:07;;;;;;;;;;;;;;;6.86;52.63;101786.26;1689894;81;20207;-84
2022/03/14 08:55:33;;;;;;;;;;;;;;;6.98;52.60;101783.73;1690639;83;21102;-84
2022/03/14 08:57:59;;;;;;;;;;;;;;;7.00;52.29;101785.78;1688525;83;20169;-84
2022/03/14 09:00:27;;;;;;;;;;;;;;;7.10;51.94;101783.47;1694119;81;20341;-85
2022/03/14 09:02:52;;;;;;;;;;;;;;;7.21;51.80;101781.50;1690260;83;20208;-85
2022/03/14 09:05:17;;;;;;;;;;;;;;;7.35;51.63;101781.97;1691465;82;20144;-84
2022/03/14 09:07:43;;;;;;;;;;;;;;;7.26;51.59;101781.22;1694150;82;22043;-83
2022/03/14 09:10:11;;;;;;;;;;;;;;;7.32;51.22;101780.84;1692230;83;20204;-83
2022/03/14 09:12:38;;;;;;;;;;;;;;;7.41;51.40;101786.84;1690226;82;20397;-85
2022/03/14 09:15:04;;;;;;;;;;;;;;;7.42;50.96;101785.05;1697213;82;20172;-84
2022/03/14 09:17:32;;;;;;;;;;;;;;;7.48;50.95;101776.31;1695120;82;20189;-86
2022/03/14 09:19:58;;;;;;;;;;;;;;;7.45;50.63;101776.98;1694065;82;21369;-89
2022/03/14 09:22:24;;;;;;;;;;;;;;;7.67;50.23;101775.16;1694006;82;20173;-86
2022/03/14 09:24:49;;;;;;;;;;;;;;;7.64;50.15;101775.34;1698199;82;20182;-85
2022/03/14 09:27:15;;;;;;;;;;;;;;;7.70;49.92;101774.95;1690613;82;20142;-84
2022/03/14 09:29:40;;;;;;;;;;;;;;;7.74;49.75;101769.89;1690918;83;20123;-85
2022/03/14 09:32:07;;;;;;;;;;;;;;;7.73;49.53;101766.88;1694435;82;21097;-85
2022/03/14 09:34:36;;;;;;;;;;;;;;;7.89;49.38;101764.97;1692138;82;20167;-87
2022/03/14 09:37:00;;;;;;;;;;;;;;;7.98;49.40;101766.14;1692040;83;20115;-85
2022/03/14 09:39:25;;;;;;;;;;;;;;;8.05;49.35;101761.34;1693489;82;20154;-87
2022/03/14 09:41:53;;;;;;;;;;;;;;;8.13;49.08;101768.73;1694294;82;20457;-88
2022/03/14 09:44:20;;;;;;;;;;;;;;;8.26;48.26;101754.67;1692721;82;20175;-88
2022/03/14 09:46:48;;;;;;;;;;;;;;;8.35;48.16;101761.58;1695361;82;20151;-83
2022/03/14 09:49:15;;;;;;;;;;;;;;;8.34;48.03;101758.56;1696297;82;20131;-90
2022/03/14 09:51:41;;;;;;;;;;;;;;;8.55;47.71;101752.39;1693495;82;20201;-85
2022/03/14 09:54:07;;;;;;;;;;;;;;;8.54;47.75;101752.84;1689509;83;20223;-81
2022/03/14 09:56:33;;;;;;;;;;;;;;;8.61;47.64;101748.02;1689334;83;21196;-84
2022/03/14 09:58:59;;;;;;;;;;;;;;;8.88;47.27;101754.98;1692755;82;20179;-82
2022/03/14 10:01:25;;;;;;;;;;;;;;;8.88;46.94;101748.39;1694352;82;20518;-88
2022/03/14 10:03:51;;;;;;;;;;;;;;;9.02;46.73;101756.67;1691807;82;20146;-88
2022/03/14 10:06:18;;;;;;;;;;;;;;;9.11;46.34;101752.91;1696877;82;20543;-85
2022/03/14 10:08:44;;;;;;;;;;;;;;;9.18;46.27;101745.89;1693063;83;21119;-83
2022/03/14 10:11:09;;;;;;;;;;;;;;;9.20;45.91;101750.11;1688407;83;20140;-82
2022/03/14 10:13:37;;;;;;;;;;;;;;;9.28;45.71;101747.77;1691567;82;20795;-91
2022/03/14 10:16:04;;;;;;;;;;;;;;;9.42;45.34;101756.02;1695085;82;20154;-86
2022/03/14 10:18:31;;;;;;;;;;;;;;;9.66;45.20;101752.13;1697620;81;20197;-82
2022/03/14 10:21:03;;;;;;;;;;;;;;;9.82;44.65;101751.84;1674913;84;21102;-82
2022/03/14 10:23:33;;;;;;;;;;;;;;;9.80;44.26;101749.77;1688328;83;20129;-81
2022/03/14 10:26:00;;;;;;;;;;;;;;;9.87;44.27;101748.87;1687096;83;20185;-82
2022/03/14 10:28:38;;;;;;;;;;;;;;;9.87;43.85;101747.55;1688274;83;20307;-83
2022/03/14 10:31:04;;;;;;;;;;;;;;;9.90;43.87;101747.33;1687437;83;20153;-84
2022/03/14 10:33:31;;;;;;;;;;;;;;;10.09;43.78;101734.93;1688175;83;40050;-85
2022/03/14 10:35:57;;;;;;;;;;;;;;;10.20;43.49;101736.77;1686108;83;20874;-85
2022/03/14 10:38:23;;;;;;;;;;;;;;;10.29;43.17;101737.89;1687982;83;20171;-85
2022/03/14 10:40:49;;;;;;;;;;;;;;;10.37;43.19;101733.73;1688950;83;20251;-85
2022/03/14 10:43:26;;;;;;;;;;;;;;;10.33;42.63;101725.70;1691757;81;20221;-86
2022/03/14 10:45:53;;;;;;;;;;;;;;;10.45;42.42;101734.47;1690331;83;22001;-83
2022/03/14 10:48:33;;;;;;;;;;;;;;;10.52;42.34;101729.59;1688020;83;20189;-83
2022/03/14 10:51:06;;;;;;;;;;;;;;;10.64;42.20;101727.79;1690344;83;20506;-80
2022/03/14 10:53:33;;;;;;;;;;;;;;;10.71;42.33;101731.66;1689043;83;20151;-84
2022/03/14 10:55:59;;;;;;;;;;;;;;;10.75;41.83;101727.80;1692054;83;20133;-83
2022/03/14 10:58:30;;;;;;;;;;;;;;;10.89;41.95;101730.70;1688385;85;21164;-82
2022/03/14 11:00:58;;;;;;;;;;;;;;;10.91;41.65;101720.87;1688738;83;20561;-84
2022/03/14 11:03:27;;;;;;;;;;;;;;;10.93;41.62;101719.77;1688031;84;20177;-82
2022/03/14 11:05:58;;;;;;;;;;;;;;;10.99;41.32;101721.09;1687381;83;20197;-84
2022/03/14 11:08:38;;;;;;;;;;;;;;;10.97;41.39;101715.10;1708854;82;20178;-84
2022/03/14 11:11:08;;;;;;;;;;;;;;;10.94;40.98;101712.70;1726916;82;21217;-84
2022/03/14 11:13:39;;;;;;;;;;;;;;;11.03;40.76;101709.33;1719025;82;20137;-81
2022/03/14 11:16:05;;;;;;;;;;;;;;;11.23;41.05;101709.55;1720752;82;20149;-83
2022/03/14 11:18:31;;;;;;;;;;;;;;;11.40;40.72;101711.67;1720496;82;20174;-83
2022/03/14 11:20:58;;;;;;;;;;;;;;;11.40;40.44;101703.73;1722511;82;20239;-84
2022/03/14 11:23:24;;;;;;;;;;;;;;;11.50;40.24;101696.75;1725853;82;21165;-83
2022/03/14 11:25:49;;;;;;;;;;;;;;;11.43;40.30;101692.91;1726875;82;20192;-83
2022/03/14 11:28:17;;;;;;;;;;;;;;;11.54;40.19;101686.75;1727162;82;20130;-83
2022/03/14 11:30:49;;;;;;;;;;;;;;;11.55;39.51;101681.83;1732416;82;20184;-91
2022/03/14 11:33:15;;;;;;;;;;;;;;;11.63;39.33;101693.11;1714123;81;20197;-89
2022/03/14 11:35:42;;;;;;;;;;;;;;;11.75;39.13;101689.47;1725205;82;21148;-85
2022/03/14 11:38:08;;;;;;;;;;;;;;;11.90;39.21;101686.52;1720779;82;20117;-89
2022/03/14 11:40:35;;;;;;;;;;;;;;;12.03;39.11;101689.88;1717064;81;20301;-91
2022/03/14 11:43:01;;;;;;;;;;;;;;;12.06;38.99;101688.29;1723535;81;20175;-91
2022/03/14 11:45:27;;;;;;;;;;;;;;;12.24;38.77;101681.09;1708243;81;20125;-92
2022/03/14 11:47:52;;;;;;;;;;;;;;;12.43;38.61;101685.66;1719507;82;21205;-89
2022/03/14 11:50:20;;;;;;;;;;;;;;;12.54;38.83;101688.26;1726492;82;20294;-90
2022/03/14 11:52:46;;;;;;;;;;;;;;;12.47;38.02;101682.62;1700881;82;20136;-85
2022/03/14 11:55:21;;;;;;;;;;;;;;;12.66;38.26;101677.94;1709830;82;20130;-91
2022/03/14 11:57:47;;;;;;;;;;;;;;;12.72;38.00;101677.87;1713455;82;20208;-84
2022/03/14 12:00:32;;;;;;;;;;;;;;;12.77;37.67;101677.00;1719697;82;22023;-92
2022/03/14 12:03:01;;;;;;;;;;;;;;;12.79;36.95;101680.35;1730373;81;20114;-93
2022/03/14 12:05:38;;;;;;;;;;;;;;;12.90;37.01;101670.97;1721707;81;20200;-83
2022/03/14 12:08:10;;;;;;;;;;;;;;;13.09;36.98;101659.58;1723604;81;20561;-86
2022/03/14 12:10:35;;;;;;;;;;;;;;;12.99;36.90;101662.71;1721055;82;20219;-93
2022/03/14 12:13:01;;;;;;;;;;;;;;;12.96;36.50;101672.27;1724155;82;21118;-91
2022/03/14 12:15:41;;;;;;;;;;;;;;;12.81;37.11;101667.80;1719801;82;20194;-93
2022/03/14 12:18:31;;;;;;;;;;;;;;;13.02;37.17;101665.56;1717688;81;20216;-89
2022/03/14 12:21:03;;;;;;;;;;;;;;;13.14;37.31;101655.20;1731366;81;20197;-84
2022/03/14 12:23:32;;;;;;;;;;;;;;;13.22;37.07;101649.21;1717779;81;20118;-89
2022/03/14 12:26:02;;;;;;;;;;;;;;;13.12;36.41;101645.22;1718875;82;21073;-87
2022/03/14 12:28:32;;;;;;;;;;;;;;;13.19;35.56;101635.75;1694472;82;20117;-90
2022/03/14 12:30:59;;;;;;;;;;;;;;;13.29;35.96;101637.91;1728927;82;20188;-88
2022/03/14 12:33:36;;;;;;;;;;;;;;;13.38;36.03;101632.31;1732623;82;20144;-90
2022/03/14 12:36:23;;;;;;;;;;;;;;;13.53;36.22;101627.45;1723889;81;20197;-94
2022/03/14 12:39:12;;;;;;;;;;;;;;;13.45;36.20;101626.81;1721283;82;21086;-88
2022/03/14 12:41:42;;;;;;;;;;;;;;;13.35;35.40;101621.15;1721398;82;20174;-92
2022/03/14 12:44:22;;;;;;;;;;;;;;;13.44;35.19;101620.32;1721342;81;20156;-88